Emmanuel Tomasos — C6SS7 — position and weather

sailwx.info

Track history (hours):
 
Tides and Currents Weather Stations Pressure Air Temp Water Temp Dewpoint Dewpoint Depression Visibility Wind Speed Wind Dir Waves Ship Positions

Emmanuel Tomasos

Last reported at 2014-Nov-23 10:17 UTC. Time now 2014-Nov-23 16:16 UTC.
Position N 59°37' E 023°19'.

Length 182 m; draft 10.2 m.

Type: Tanker. MMSI: 311459000.

Date/timePositionNaut miles runAvg speedWind from/ knotsBaromVisibWave heightAir tempDewpointWater temp
2014-Nov-23 10:17N 59°37' E 023°19'912.8
2014-Nov-23 09:33N 59°40' E 023°37'1010.2
2014-Nov-23 08:33N 59°43' E 023°56'1212.2
2014-Nov-23 07:33N 59°46' E 024°19'6713.2
2014-Nov-23 02:29N 60°01' E 026°29'1212.5
2014-Nov-23 01:32N 60°00' E 026°53'25 0.5
2014-Nov-21 03:04N 60°09' E 027°40'713.2
2014-Nov-21 02:33N 60°05' E 027°28'1413.5
2014-Nov-21 01:32N 59°58' E 027°05'1313.0
2014-Nov-21 00:33N 59°59' E 026°40'1313.2
2014-Nov-20 23:33N 59°56' E 026°14'1313.3
2014-Nov-20 22:33N 59°52' E 025°49'1413.3
2014-Nov-20 21:31N 59°50' E 025°22'1513.4
2014-Nov-20 20:25N 59°46' E 024°53'1113.3
2014-Nov-20 19:33N 59°44' E 024°31'1313.0
2014-Nov-20 18:33N 59°41' E 024°06'1313.3
2014-Nov-20 17:33N 59°36' E 023°41'35812.6
2014-Nov-19 13:07N 55°36' E 015°27'2012.8
2014-Nov-19 11:33N 55°28' E 014°55'1312.7
2014-Nov-19 10:33N 55°22' E 014°35'1312.8
2014-Nov-19 09:33N 55°12' E 014°21'3112.5
2014-Nov-19 07:07N 55°12' E 013°28'712.3
2014-Nov-19 06:33N 55°13' E 013°16'1212.3
2014-Nov-19 05:33N 55°15' E 012°54'1110.7
2014-Nov-19 04:33N 55°20' E 012°38'1313.1
2014-Nov-19 03:34N 55°33' E 012°42'1111.3
2014-Nov-19 02:34N 55°44' E 012°41'1313.5
2014-Nov-19 01:34N 55°58' E 012°38'1110.7
2014-Nov-19 00:34N 56°07' E 012°30'1010.3
2014-Nov-18 23:34N 56°13' E 012°15'1110.7
2014-Nov-18 22:33N 56°21' E 012°02'1312.9
2014-Nov-18 21:32N 56°34' E 011°57'4312.7
2014-Nov-18 18:10N 57°15' E 011°33'712.2
2014-Nov-18 17:33N 57°22' E 011°28'1211.9
2014-Nov-18 16:34N 57°31' E 011°15'1212.3
2014-Nov-18 15:34N 57°40' E 010°59'1212.4
2014-Nov-18 14:34N 57°49' E 010°42'28312.2
2014-Nov-17 15:16N 54°19' E 005°00'18712.5
2014-Nov-17 00:21N 51°38' E 002°25'1113.4
2014-Nov-16 23:34N 51°30' E 002°14'9 9.0
2014-Nov-16 22:33N 51°21' E 002°20'1312.6
2014-Nov-16 21:29N 51°23' E 002°41'1212.3
2014-Nov-16 20:33N 51°24' E 002°60'1312.6
2014-Nov-16 19:33N 51°24' E 003°20'1211.9
2014-Nov-16 18:33N 51°26' E 003°39'6 5.8
2014-Nov-16 17:34N 51°23' E 003°47'0 0.0
2014-Nov-16 16:34N 51°23' E 003°47'0 0.2
2014-Nov-16 15:34N 51°23' E 003°46'0 0.1
2014-Nov-16 14:34N 51°23' E 003°46'0 0.0
2014-Nov-16 13:34N 51°23' E 003°46'8 7.9
2014-Nov-16 12:34N 51°25' E 003°34'1312.5
2014-Nov-16 11:34N 51°24' E 003°14'1413.6
2014-Nov-16 10:33N 51°22' E 002°53'1312.4
2014-Nov-16 09:32N 51°22' E 002°32'1414.2
2014-Nov-16 08:33N 51°16' E 002°12'1514.6
2014-Nov-16 07:33N 51°09' E 001°52'1514.8
2014-Nov-16 06:33N 50°59' E 001°34'4513.3
2014-Nov-16 03:12N 50°28' E 000°44'914.2
2014-Nov-16 02:33N 50°25' E 000°30'  
Track history (hours):
 
Tides and Currents Weather Stations Pressure Air Temp Water Temp Dewpoint Dewpoint Depression Visibility Wind Speed Wind Dir Waves Ship Positions

Emmanuel Tomasos

Last reported at 2014-Nov-23 10:17 UTC. Time now 2014-Nov-23 16:16 UTC.
Position N 59°37' E 023°19'.

Length 182 m; draft 10.2 m.

Type: Tanker. MMSI: 311459000.

Date/timePositionNaut miles runAvg speedWind from/ knotsBaromVisibWave heightAir tempDewpointWater temp
2014-Nov-23 10:17N 59°37' E 023°19'912.8
2014-Nov-23 09:33N 59°40' E 023°37'1010.2
2014-Nov-23 08:33N 59°43' E 023°56'1212.2
2014-Nov-23 07:33N 59°46' E 024°19'6713.2
2014-Nov-23 02:29N 60°01' E 026°29'1212.5
2014-Nov-23 01:32N 60°00' E 026°53'25 0.5
2014-Nov-21 03:04N 60°09' E 027°40'713.2
2014-Nov-21 02:33N 60°05' E 027°28'1413.5
2014-Nov-21 01:32N 59°58' E 027°05'1313.0
2014-Nov-21 00:33N 59°59' E 026°40'1313.2
2014-Nov-20 23:33N 59°56' E 026°14'1313.3
2014-Nov-20 22:33N 59°52' E 025°49'1413.3
2014-Nov-20 21:31N 59°50' E 025°22'1513.4
2014-Nov-20 20:25N 59°46' E 024°53'1113.3
2014-Nov-20 19:33N 59°44' E 024°31'1313.0
2014-Nov-20 18:33N 59°41' E 024°06'1313.3
2014-Nov-20 17:33N 59°36' E 023°41'35812.6
2014-Nov-19 13:07N 55°36' E 015°27'2012.8
2014-Nov-19 11:33N 55°28' E 014°55'1312.7
2014-Nov-19 10:33N 55°22' E 014°35'1312.8
2014-Nov-19 09:33N 55°12' E 014°21'3112.5
2014-Nov-19 07:07N 55°12' E 013°28'712.3
2014-Nov-19 06:33N 55°13' E 013°16'1212.3
2014-Nov-19 05:33N 55°15' E 012°54'1110.7
2014-Nov-19 04:33N 55°20' E 012°38'1313.1
2014-Nov-19 03:34N 55°33' E 012°42'1111.3
2014-Nov-19 02:34N 55°44' E 012°41'1313.5
2014-Nov-19 01:34N 55°58' E 012°38'1110.7
2014-Nov-19 00:34N 56°07' E 012°30'1010.3
2014-Nov-18 23:34N 56°13' E 012°15'1110.7
2014-Nov-18 22:33N 56°21' E 012°02'1312.9
2014-Nov-18 21:32N 56°34' E 011°57'4312.7
2014-Nov-18 18:10N 57°15' E 011°33'712.2
2014-Nov-18 17:33N 57°22' E 011°28'1211.9
2014-Nov-18 16:34N 57°31' E 011°15'1212.3
2014-Nov-18 15:34N 57°40' E 010°59'1212.4
2014-Nov-18 14:34N 57°49' E 010°42'28312.2
2014-Nov-17 15:16N 54°19' E 005°00'18712.5
2014-Nov-17 00:21N 51°38' E 002°25'1113.4
2014-Nov-16 23:34N 51°30' E 002°14'9 9.0
2014-Nov-16 22:33N 51°21' E 002°20'1312.6
2014-Nov-16 21:29N 51°23' E 002°41'1212.3
2014-Nov-16 20:33N 51°24' E 002°60'1312.6
2014-Nov-16 19:33N 51°24' E 003°20'1211.9
2014-Nov-16 18:33N 51°26' E 003°39'6 5.8
2014-Nov-16 17:34N 51°23' E 003°47'0 0.0
2014-Nov-16 16:34N 51°23' E 003°47'0 0.2
2014-Nov-16 15:34N 51°23' E 003°46'0 0.1
2014-Nov-16 14:34N 51°23' E 003°46'0 0.0
2014-Nov-16 13:34N 51°23' E 003°46'8 7.9
2014-Nov-16 12:34N 51°25' E 003°34'1312.5
2014-Nov-16 11:34N 51°24' E 003°14'1413.6
2014-Nov-16 10:33N 51°22' E 002°53'1312.4
2014-Nov-16 09:32N 51°22' E 002°32'1414.2
2014-Nov-16 08:33N 51°16' E 002°12'1514.6
2014-Nov-16 07:33N 51°09' E 001°52'1514.8
2014-Nov-16 06:33N 50°59' E 001°34'4513.3
2014-Nov-16 03:12N 50°28' E 000°44'914.2
2014-Nov-16 02:33N 50°25' E 000°30'  

Dump ship's entire track history